sensor_id;sensor_type;location;lat;lon;timestamp;pressure;altitude;pressure_sealevel;temperature;humidity
78679;BME280;67994;59.334;13.528;2023-12-14T00:00:00;101200.0;;;-4.4;83.2
78679;BME280;67994;59.334;13.528;2023-12-14T00:01:00;101200.0;;;-4.4;82.7
78679;BME280;67994;59.334;13.528;2023-12-14T00:02:00;101200.0;;;-4.4;82.6
78679;BME280;67994;59.334;13.528;2023-12-14T00:03:00;101200.0;;;-4.4;82.8
78679;BME280;67994;59.334;13.528;2023-12-14T00:04:00;101200.0;;;-4.4;83.1
78679;BME280;67994;59.334;13.528;2023-12-14T00:05:00;101200.0;;;-4.5;83.0
78679;BME280;67994;59.334;13.528;2023-12-14T00:06:00;101200.0;;;-4.5;82.9
78679;BME280;67994;59.334;13.528;2023-12-14T00:07:00;101200.0;;;-4.5;83.0
78679;BME280;67994;59.334;13.528;2023-12-14T00:08:00;101200.0;;;-4.4;82.8
78679;BME280;67994;59.334;13.528;2023-12-14T00:09:00;101200.0;;;-4.5;83.0
78679;BME280;67994;59.334;13.528;2023-12-14T00:10:00;101200.0;;;-4.5;83.1
78679;BME280;67994;59.334;13.528;2023-12-14T00:11:03;101200.0;;;-4.6;82.8
78679;BME280;67994;59.334;13.528;2023-12-14T00:12:00;101200.0;;;-4.8;82.9
78679;BME280;67994;59.334;13.528;2023-12-14T00:13:00;101200.0;;;-4.8;82.9
78679;BME280;67994;59.334;13.528;2023-12-14T00:14:00;101200.0;;;-4.7;82.8
78679;BME280;67994;59.334;13.528;2023-12-14T00:15:00;101200.0;;;-4.8;82.8
78679;BME280;67994;59.334;13.528;2023-12-14T00:16:01;101200.0;;;-4.7;82.8
78679;BME280;67994;59.334;13.528;2023-12-14T00:17:01;101200.0;;;-4.9;82.8
78679;BME280;67994;59.334;13.528;2023-12-14T00:18:00;101200.0;;;-4.8;82.9
78679;BME280;67994;59.334;13.528;2023-12-14T00:19:00;101200.0;;;-4.9;83.0
78679;BME280;67994;59.334;13.528;2023-12-14T00:20:00;101200.0;;;-4.9;83.1
78679;BME280;67994;59.334;13.528;2023-12-14T00:21:00;101200.0;;;-4.9;83.0
78679;BME280;67994;59.334;13.528;2023-12-14T00:22:00;101200.0;;;-4.9;83.1
78679;BME280;67994;59.334;13.528;2023-12-14T00:23:00;101200.0;;;-4.9;83.0
78679;BME280;67994;59.334;13.528;2023-12-14T00:24:00;101200.0;;;-4.8;83.4
78679;BME280;67994;59.334;13.528;2023-12-14T00:25:00;101200.0;;;-4.7;84.0
78679;BME280;67994;59.334;13.528;2023-12-14T00:26:00;101200.0;;;-4.6;83.9
78679;BME280;67994;59.334;13.528;2023-12-14T00:27:00;101200.0;;;-4.7;83.7
78679;BME280;67994;59.334;13.528;2023-12-14T00:28:00;101200.0;;;-4.6;83.6
78679;BME280;67994;59.334;13.528;2023-12-14T00:29:00;101200.0;;;-4.6;83.2
78679;BME280;67994;59.334;13.528;2023-12-14T00:30:00;101200.0;;;-4.6;83.4
78679;BME280;67994;59.334;13.528;2023-12-14T00:31:00;101200.0;;;-4.6;83.2
78679;BME280;67994;59.334;13.528;2023-12-14T00:32:00;101200.0;;;-4.5;83.2
78679;BME280;67994;59.334;13.528;2023-12-14T00:33:00;101200.0;;;-4.5;83.3
78679;BME280;67994;59.334;13.528;2023-12-14T00:34:00;101200.0;;;-4.5;83.4
78679;BME280;67994;59.334;13.528;2023-12-14T00:35:00;101200.0;;;-4.5;83.4
78679;BME280;67994;59.334;13.528;2023-12-14T00:36:00;101200.0;;;-4.4;83.6
78679;BME280;67994;59.334;13.528;2023-12-14T00:37:00;101200.0;;;-4.4;83.3
78679;BME280;67994;59.334;13.528;2023-12-14T00:38:00;101200.0;;;-4.6;82.7
78679;BME280;67994;59.334;13.528;2023-12-14T00:39:00;101200.0;;;-4.5;82.7
78679;BME280;67994;59.334;13.528;2023-12-14T00:40:00;101200.0;;;-4.6;82.8
78679;BME280;67994;59.334;13.528;2023-12-14T00:41:00;101200.0;;;-4.7;82.8
78679;BME280;67994;59.334;13.528;2023-12-14T00:42:00;101200.0;;;-4.7;83.3
78679;BME280;67994;59.334;13.528;2023-12-14T00:43:00;101200.0;;;-4.6;82.7
78679;BME280;67994;59.334;13.528;2023-12-14T00:44:00;101200.0;;;-4.5;82.9
78679;BME280;67994;59.334;13.528;2023-12-14T00:45:00;101200.0;;;-4.6;82.9
78679;BME280;67994;59.334;13.528;2023-12-14T00:46:00;101200.0;;;-4.6;83.0
78679;BME280;67994;59.334;13.528;2023-12-14T00:47:00;101200.0;;;-4.6;83.0
78679;BME280;67994;59.334;13.528;2023-12-14T00:48:00;101200.0;;;-4.6;83.1
78679;BME280;67994;59.334;13.528;2023-12-14T00:49:00;101200.0;;;-4.6;83.0
78679;BME280;67994;59.334;13.528;2023-12-14T00:50:00;101200.0;;;-4.5;83.4
78679;BME280;67994;59.334;13.528;2023-12-14T00:51:00;101200.0;;;-4.6;83.2
78679;BME280;67994;59.334;13.528;2023-12-14T00:52:00;101200.0;;;-4.7;83.3
78679;BME280;67994;59.334;13.528;2023-12-14T00:53:00;101200.0;;;-4.7;83.3
78679;BME280;67994;59.334;13.528;2023-12-14T00:54:00;101200.0;;;-4.8;83.3
78679;BME280;67994;59.334;13.528;2023-12-14T00:55:00;101200.0;;;-4.7;83.4
78679;BME280;67994;59.334;13.528;2023-12-14T00:56:00;101200.0;;;-4.7;83.4
78679;BME280;67994;59.334;13.528;2023-12-14T00:57:00;101200.0;;;-4.8;83.5
78679;BME280;67994;59.334;13.528;2023-12-14T00:58:00;101200.0;;;-4.8;83.8
78679;BME280;67994;59.334;13.528;2023-12-14T00:59:00;101200.0;;;-4.8;83.4
78679;BME280;67994;59.334;13.528;2023-12-14T01:00:00;101200.0;;;-4.9;83.3
78679;BME280;67994;59.334;13.528;2023-12-14T01:01:00;101200.0;;;-4.9;83.1
78679;BME280;67994;59.334;13.528;2023-12-14T01:02:00;101200.0;;;-4.9;83.0
78679;BME280;67994;59.334;13.528;2023-12-14T01:03:00;101200.0;;;-4.9;82.9
78679;BME280;67994;59.334;13.528;2023-12-14T01:04:00;101200.0;;;-4.9;83.1
78679;BME280;67994;59.334;13.528;2023-12-14T01:05:00;101200.0;;;-4.9;82.8
78679;BME280;67994;59.334;13.528;2023-12-14T01:06:00;101200.0;;;-4.9;82.8
78679;BME280;67994;59.334;13.528;2023-12-14T01:07:00;101200.0;;;-4.8;83.2
78679;BME280;67994;59.334;13.528;2023-12-14T01:08:00;101200.0;;;-4.7;83.3
78679;BME280;67994;59.334;13.528;2023-12-14T01:09:00;101200.0;;;-4.6;83.5
78679;BME280;67994;59.334;13.528;2023-12-14T01:10:00;101200.0;;;-4.6;83.8
78679;BME280;67994;59.334;13.528;2023-12-14T01:11:00;101200.0;;;-4.5;83.7
78679;BME280;67994;59.334;13.528;2023-12-14T01:12:00;101200.0;;;-4.6;82.9
78679;BME280;67994;59.334;13.528;2023-12-14T01:13:00;101200.0;;;-4.6;82.6
78679;BME280;67994;59.334;13.528;2023-12-14T01:14:00;101200.0;;;-4.6;82.6
78679;BME280;67994;59.334;13.528;2023-12-14T01:15:00;101200.0;;;-4.7;82.5
78679;BME280;67994;59.334;13.528;2023-12-14T01:16:00;101200.0;;;-4.7;82.4
78679;BME280;67994;59.334;13.528;2023-12-14T01:17:00;101200.0;;;-4.6;82.5
78679;BME280;67994;59.334;13.528;2023-12-14T01:18:00;101200.0;;;-4.7;82.2
78679;BME280;67994;59.334;13.528;2023-12-14T01:19:00;101200.0;;;-4.7;82.3
78679;BME280;67994;59.334;13.528;2023-12-14T01:20:00;101200.0;;;-4.6;82.2
78679;BME280;67994;59.334;13.528;2023-12-14T01:21:00;101200.0;;;-4.7;82.1
78679;BME280;67994;59.334;13.528;2023-12-14T01:22:00;101200.0;;;-4.7;82.4
78679;BME280;67994;59.334;13.528;2023-12-14T01:23:00;101200.0;;;-4.8;82.3
78679;BME280;67994;59.334;13.528;2023-12-14T01:24:00;101200.0;;;-4.7;82.1
78679;BME280;67994;59.334;13.528;2023-12-14T01:25:00;101200.0;;;-4.8;82.1
78679;BME280;67994;59.334;13.528;2023-12-14T01:26:00;101200.0;;;-4.8;81.8
78679;BME280;67994;59.334;13.528;2023-12-14T01:27:00;101200.0;;;-4.9;82.2
78679;BME280;67994;59.334;13.528;2023-12-14T01:28:00;101200.0;;;-4.8;82.4
78679;BME280;67994;59.334;13.528;2023-12-14T01:29:00;101200.0;;;-4.9;82.0
78679;BME280;67994;59.334;13.528;2023-12-14T01:30:00;101200.0;;;-4.9;82.0
78679;BME280;67994;59.334;13.528;2023-12-14T01:31:00;101200.0;;;-4.9;82.2
78679;BME280;67994;59.334;13.528;2023-12-14T01:32:00;101200.0;;;-4.9;82.2
78679;BME280;67994;59.334;13.528;2023-12-14T01:33:00;101200.0;;;-4.9;82.2
78679;BME280;67994;59.334;13.528;2023-12-14T01:34:00;101300.0;;;-4.8;82.5
78679;BME280;67994;59.334;13.528;2023-12-14T01:35:00;101300.0;;;-4.8;82.7
78679;BME280;67994;59.334;13.528;2023-12-14T01:36:00;101300.0;;;-4.8;82.4
78679;BME280;67994;59.334;13.528;2023-12-14T01:37:00;101300.0;;;-4.8;82.4
78679;BME280;67994;59.334;13.528;2023-12-14T01:38:00;101300.0;;;-4.8;82.5
78679;BME280;67994;59.334;13.528;2023-12-14T01:39:00;101300.0;;;-4.8;82.4
78679;BME280;67994;59.334;13.528;2023-12-14T01:40:00;101300.0;;;-4.9;81.9
78679;BME280;67994;59.334;13.528;2023-12-14T01:41:00;101300.0;;;-4.9;82.0
78679;BME280;67994;59.334;13.528;2023-12-14T01:42:00;101300.0;;;-5.1;82.0
78679;BME280;67994;59.334;13.528;2023-12-14T01:43:08;101300.0;;;-5.0;82.2
78679;BME280;67994;59.334;13.528;2023-12-14T01:44:00;101300.0;;;-5.0;81.7
78679;BME280;67994;59.334;13.528;2023-12-14T01:45:00;101300.0;;;-5.0;81.6
78679;BME280;67994;59.334;13.528;2023-12-14T01:46:00;101300.0;;;-5.1;82.3
78679;BME280;67994;59.334;13.528;2023-12-14T01:47:00;101300.0;;;-5.1;81.7
78679;BME280;67994;59.334;13.528;2023-12-14T01:48:00;101300.0;;;-5.1;81.7
78679;BME280;67994;59.334;13.528;2023-12-14T01:49:00;101300.0;;;-5.2;81.9
78679;BME280;67994;59.334;13.528;2023-12-14T01:50:00;101300.0;;;-5.2;81.9
78679;BME280;67994;59.334;13.528;2023-12-14T01:51:00;101300.0;;;-5.1;82.3
78679;BME280;67994;59.334;13.528;2023-12-14T01:52:00;101300.0;;;-5.2;82.1
78679;BME280;67994;59.334;13.528;2023-12-14T01:53:00;101300.0;;;-5.1;83.0
78679;BME280;67994;59.334;13.528;2023-12-14T01:54:00;101300.0;;;-5.2;81.9
78679;BME280;67994;59.334;13.528;2023-12-14T01:55:00;101300.0;;;-5.3;81.7
78679;BME280;67994;59.334;13.528;2023-12-14T01:56:00;101300.0;;;-5.3;81.6
78679;BME280;67994;59.334;13.528;2023-12-14T01:57:00;101300.0;;;-5.3;81.8
78679;BME280;67994;59.334;13.528;2023-12-14T01:58:00;101300.0;;;-5.4;81.8
78679;BME280;67994;59.334;13.528;2023-12-14T01:59:00;101300.0;;;-5.3;81.6
78679;BME280;67994;59.334;13.528;2023-12-14T02:00:00;101300.0;;;-5.3;81.4
78679;BME280;67994;59.334;13.528;2023-12-14T02:01:05;101300.0;;;-5.3;81.4
78679;BME280;67994;59.334;13.528;2023-12-14T02:02:00;101300.0;;;-5.3;81.5
78679;BME280;67994;59.334;13.528;2023-12-14T02:03:00;101300.0;;;-5.3;81.4
78679;BME280;67994;59.334;13.528;2023-12-14T02:04:00;101300.0;;;-5.2;81.9
78679;BME280;67994;59.334;13.528;2023-12-14T02:05:00;101300.0;;;-5.2;82.4
78679;BME280;67994;59.334;13.528;2023-12-14T02:06:00;101300.0;;;-5.2;81.8
78679;BME280;67994;59.334;13.528;2023-12-14T02:07:00;101300.0;;;-5.2;81.5
78679;BME280;67994;59.334;13.528;2023-12-14T02:08:00;101300.0;;;-5.2;81.5
78679;BME280;67994;59.334;13.528;2023-12-14T02:09:00;101300.0;;;-5.3;81.4
78679;BME280;67994;59.334;13.528;2023-12-14T02:10:00;101300.0;;;-5.2;81.7
78679;BME280;67994;59.334;13.528;2023-12-14T02:11:00;101300.0;;;-5.3;81.4
78679;BME280;67994;59.334;13.528;2023-12-14T02:12:00;101300.0;;;-5.4;80.9
78679;BME280;67994;59.334;13.528;2023-12-14T02:13:01;101300.0;;;-5.3;81.3
78679;BME280;67994;59.334;13.528;2023-12-14T02:14:03;101300.0;;;-5.2;81.7
78679;BME280;67994;59.334;13.528;2023-12-14T02:15:00;101300.0;;;-5.2;81.7
78679;BME280;67994;59.334;13.528;2023-12-14T02:16:00;101300.0;;;-5.1;81.3
78679;BME280;67994;59.334;13.528;2023-12-14T02:17:00;101300.0;;;-5.3;80.6
78679;BME280;67994;59.334;13.528;2023-12-14T02:18:00;101300.0;;;-5.4;80.5
78679;BME280;67994;59.334;13.528;2023-12-14T02:19:01;101300.0;;;-5.3;80.6
78679;BME280;67994;59.334;13.528;2023-12-14T02:20:00;101300.0;;;-5.3;80.9
78679;BME280;67994;59.334;13.528;2023-12-14T02:21:00;101300.0;;;-5.2;80.7
78679;BME280;67994;59.334;13.528;2023-12-14T02:22:00;101300.0;;;-5.2;81.1
78679;BME280;67994;59.334;13.528;2023-12-14T02:23:00;101300.0;;;-5.2;80.7
78679;BME280;67994;59.334;13.528;2023-12-14T02:24:00;101300.0;;;-5.2;80.8
78679;BME280;67994;59.334;13.528;2023-12-14T02:25:00;101300.0;;;-5.3;80.9
78679;BME280;67994;59.334;13.528;2023-12-14T02:26:00;101300.0;;;-5.3;81.0
78679;BME280;67994;59.334;13.528;2023-12-14T02:27:00;101300.0;;;-5.3;80.8
78679;BME280;67994;59.334;13.528;2023-12-14T02:28:00;101300.0;;;-5.4;80.9
78679;BME280;67994;59.334;13.528;2023-12-14T02:29:00;101300.0;;;-5.4;80.8
78679;BME280;67994;59.334;13.528;2023-12-14T02:30:00;101300.0;;;-5.4;80.7
78679;BME280;67994;59.334;13.528;2023-12-14T02:31:00;101300.0;;;-5.6;80.9
78679;BME280;67994;59.334;13.528;2023-12-14T02:32:00;101300.0;;;-5.5;80.3
78679;BME280;67994;59.334;13.528;2023-12-14T02:33:00;101300.0;;;-5.5;80.6
78679;BME280;67994;59.334;13.528;2023-12-14T02:34:00;101300.0;;;-5.5;80.7
78679;BME280;67994;59.334;13.528;2023-12-14T02:35:00;101300.0;;;-5.6;82.0
78679;BME280;67994;59.334;13.528;2023-12-14T02:36:00;101300.0;;;-5.7;80.9
78679;BME280;67994;59.334;13.528;2023-12-14T02:37:00;101300.0;;;-5.6;81.5
78679;BME280;67994;59.334;13.528;2023-12-14T02:38:00;101300.0;;;-5.5;81.0
78679;BME280;67994;59.334;13.528;2023-12-14T02:39:01;101300.0;;;-5.4;80.9
78679;BME280;67994;59.334;13.528;2023-12-14T02:40:00;101300.0;;;-5.6;80.6
78679;BME280;67994;59.334;13.528;2023-12-14T02:41:00;101300.0;;;-5.7;80.4
78679;BME280;67994;59.334;13.528;2023-12-14T02:42:00;101300.0;;;-5.7;80.4
78679;BME280;67994;59.334;13.528;2023-12-14T02:43:00;101300.0;;;-5.8;80.5
78679;BME280;67994;59.334;13.528;2023-12-14T02:44:00;101300.0;;;-5.8;80.5
78679;BME280;67994;59.334;13.528;2023-12-14T02:45:00;101300.0;;;-5.8;80.5
78679;BME280;67994;59.334;13.528;2023-12-14T02:46:00;101300.0;;;-5.8;80.8
78679;BME280;67994;59.334;13.528;2023-12-14T02:47:00;101200.0;;;-5.9;80.8
78679;BME280;67994;59.334;13.528;2023-12-14T02:48:00;101200.0;;;-5.8;80.6
78679;BME280;67994;59.334;13.528;2023-12-14T02:49:00;101200.0;;;-5.8;80.6
78679;BME280;67994;59.334;13.528;2023-12-14T02:50:00;101200.0;;;-5.8;80.3
78679;BME280;67994;59.334;13.528;2023-12-14T02:51:00;101200.0;;;-5.8;80.5
78679;BME280;67994;59.334;13.528;2023-12-14T02:52:00;101200.0;;;-5.7;80.5
78679;BME280;67994;59.334;13.528;2023-12-14T02:53:00;101200.0;;;-5.7;80.6
78679;BME280;67994;59.334;13.528;2023-12-14T02:54:00;101200.0;;;-5.6;80.7
78679;BME280;67994;59.334;13.528;2023-12-14T02:55:00;101200.0;;;-5.7;80.1
78679;BME280;67994;59.334;13.528;2023-12-14T02:56:01;101200.0;;;-5.8;80.1
78679;BME280;67994;59.334;13.528;2023-12-14T02:57:00;101200.0;;;-5.8;80.2
78679;BME280;67994;59.334;13.528;2023-12-14T02:58:00;101200.0;;;-5.7;80.1
78679;BME280;67994;59.334;13.528;2023-12-14T02:59:00;101200.0;;;-5.7;80.4
78679;BME280;67994;59.334;13.528;2023-12-14T03:00:00;101200.0;;;-5.6;80.4
78679;BME280;67994;59.334;13.528;2023-12-14T03:01:00;101200.0;;;-5.7;80.5
78679;BME280;67994;59.334;13.528;2023-12-14T03:02:00;101200.0;;;-5.7;80.0
78679;BME280;67994;59.334;13.528;2023-12-14T03:03:00;101200.0;;;-5.8;80.4
78679;BME280;67994;59.334;13.528;2023-12-14T03:04:00;101200.0;;;-5.8;80.0
78679;BME280;67994;59.334;13.528;2023-12-14T03:05:00;101200.0;;;-5.8;80.2
78679;BME280;67994;59.334;13.528;2023-12-14T03:06:00;101200.0;;;-5.8;80.1
78679;BME280;67994;59.334;13.528;2023-12-14T03:07:00;101200.0;;;-5.8;80.0
78679;BME280;67994;59.334;13.528;2023-12-14T03:08:00;101200.0;;;-5.9;79.8
78679;BME280;67994;59.334;13.528;2023-12-14T03:09:00;101200.0;;;-5.9;80.0
78679;BME280;67994;59.334;13.528;2023-12-14T03:10:02;101200.0;;;-6.0;79.6
78679;BME280;67994;59.334;13.528;2023-12-14T03:11:00;101200.0;;;-6.0;79.9
78679;BME280;67994;59.334;13.528;2023-12-14T03:12:00;101200.0;;;-6.1;79.9
78679;BME280;67994;59.334;13.528;2023-12-14T03:13:00;101200.0;;;-6.2;79.9
78679;BME280;67994;59.334;13.528;2023-12-14T03:14:00;101200.0;;;-6.4;80.5
78679;BME280;67994;59.334;13.528;2023-12-14T03:15:00;101200.0;;;-6.4;80.9
78679;BME280;67994;59.334;13.528;2023-12-14T03:16:00;101200.0;;;-6.5;81.3
78679;BME280;67994;59.334;13.528;2023-12-14T03:17:00;101200.0;;;-6.6;81.4
78679;BME280;67994;59.334;13.528;2023-12-14T03:18:00;101200.0;;;-6.6;82.1
78679;BME280;67994;59.334;13.528;2023-12-14T03:19:00;101200.0;;;-6.5;81.9
78679;BME280;67994;59.334;13.528;2023-12-14T03:20:00;101200.0;;;-6.7;81.0
78679;BME280;67994;59.334;13.528;2023-12-14T03:21:00;101200.0;;;-6.8;81.0
78679;BME280;67994;59.334;13.528;2023-12-14T03:22:00;101200.0;;;-6.7;81.1
78679;BME280;67994;59.334;13.528;2023-12-14T03:23:00;101200.0;;;-6.8;81.1
78679;BME280;67994;59.334;13.528;2023-12-14T03:24:00;101200.0;;;-6.8;81.2
78679;BME280;67994;59.334;13.528;2023-12-14T03:25:00;101200.0;;;-6.8;82.1
78679;BME280;67994;59.334;13.528;2023-12-14T03:26:00;101200.0;;;-6.7;81.6
78679;BME280;67994;59.334;13.528;2023-12-14T03:27:00;101200.0;;;-7.0;81.5
78679;BME280;67994;59.334;13.528;2023-12-14T03:28:00;101200.0;;;-7.0;81.8
78679;BME280;67994;59.334;13.528;2023-12-14T03:29:00;101200.0;;;-7.1;81.9
78679;BME280;67994;59.334;13.528;2023-12-14T03:30:00;101200.0;;;-7.1;82.0
78679;BME280;67994;59.334;13.528;2023-12-14T03:31:00;101200.0;;;-7.2;82.3
78679;BME280;67994;59.334;13.528;2023-12-14T03:32:00;101200.0;;;-7.3;82.9
78679;BME280;67994;59.334;13.528;2023-12-14T03:33:00;101200.0;;;-7.2;83.2
78679;BME280;67994;59.334;13.528;2023-12-14T03:34:00;101200.0;;;-7.3;82.9
78679;BME280;67994;59.334;13.528;2023-12-14T03:35:00;101200.0;;;-7.3;83.0
78679;BME280;67994;59.334;13.528;2023-12-14T03:36:00;101200.0;;;-7.4;82.7
78679;BME280;67994;59.334;13.528;2023-12-14T03:37:00;101200.0;;;-7.3;82.9
78679;BME280;67994;59.334;13.528;2023-12-14T03:38:00;101200.0;;;-7.3;82.7
78679;BME280;67994;59.334;13.528;2023-12-14T03:39:00;101200.0;;;-7.3;82.7
78679;BME280;67994;59.334;13.528;2023-12-14T03:40:00;101200.0;;;-7.4;82.5
78679;BME280;67994;59.334;13.528;2023-12-14T03:41:00;101200.0;;;-7.5;82.5
78679;BME280;67994;59.334;13.528;2023-12-14T03:42:00;101200.0;;;-7.6;82.4
78679;BME280;67994;59.334;13.528;2023-12-14T03:43:00;101200.0;;;-7.5;82.7
78679;BME280;67994;59.334;13.528;2023-12-14T03:44:00;101200.0;;;-7.5;82.8
78679;BME280;67994;59.334;13.528;2023-12-14T03:45:00;101200.0;;;-7.6;83.3
78679;BME280;67994;59.334;13.528;2023-12-14T03:46:00;101200.0;;;-7.7;83.4
78679;BME280;67994;59.334;13.528;2023-12-14T03:47:00;101200.0;;;-7.7;83.6
78679;BME280;67994;59.334;13.528;2023-12-14T03:48:00;101200.0;;;-7.8;83.9
78679;BME280;67994;59.334;13.528;2023-12-14T03:49:00;101200.0;;;-7.8;83.9
78679;BME280;67994;59.334;13.528;2023-12-14T03:50:00;101200.0;;;-7.9;83.8
78679;BME280;67994;59.334;13.528;2023-12-14T03:51:02;101200.0;;;-7.8;83.9
78679;BME280;67994;59.334;13.528;2023-12-14T03:52:00;101200.0;;;-7.7;83.9
78679;BME280;67994;59.334;13.528;2023-12-14T03:53:00;101200.0;;;-7.8;84.1
78679;BME280;67994;59.334;13.528;2023-12-14T03:54:00;101200.0;;;-7.8;84.3
78679;BME280;67994;59.334;13.528;2023-12-14T03:55:00;101200.0;;;-7.9;84.4
78679;BME280;67994;59.334;13.528;2023-12-14T03:56:00;101200.0;;;-8.0;84.5
78679;BME280;67994;59.334;13.528;2023-12-14T03:57:00;101200.0;;;-8.0;84.7
78679;BME280;67994;59.334;13.528;2023-12-14T03:58:00;101200.0;;;-8.1;84.5
78679;BME280;67994;59.334;13.528;2023-12-14T03:59:00;101200.0;;;-8.1;84.8
78679;BME280;67994;59.334;13.528;2023-12-14T04:00:00;101200.0;;;-8.0;84.1
78679;BME280;67994;59.334;13.528;2023-12-14T04:01:00;101200.0;;;-8.0;84.0
78679;BME280;67994;59.334;13.528;2023-12-14T04:02:00;101200.0;;;-8.1;84.4
78679;BME280;67994;59.334;13.528;2023-12-14T04:03:00;101200.0;;;-8.0;84.6
78679;BME280;67994;59.334;13.528;2023-12-14T04:04:00;101200.0;;;-8.1;84.6
78679;BME280;67994;59.334;13.528;2023-12-14T04:05:00;101200.0;;;-8.0;85.1
78679;BME280;67994;59.334;13.528;2023-12-14T04:06:00;101200.0;;;-8.0;84.9
78679;BME280;67994;59.334;13.528;2023-12-14T04:07:00;101200.0;;;-7.9;84.4
78679;BME280;67994;59.334;13.528;2023-12-14T04:08:00;101200.0;;;-7.9;83.7
78679;BME280;67994;59.334;13.528;2023-12-14T04:09:00;101200.0;;;-7.9;83.5
78679;BME280;67994;59.334;13.528;2023-12-14T04:10:00;101200.0;;;-7.9;83.6
78679;BME280;67994;59.334;13.528;2023-12-14T04:11:00;101200.0;;;-7.8;83.9
78679;BME280;67994;59.334;13.528;2023-12-14T04:12:00;101200.0;;;-7.9;83.6
78679;BME280;67994;59.334;13.528;2023-12-14T04:13:00;101200.0;;;-8.0;83.4
78679;BME280;67994;59.334;13.528;2023-12-14T04:14:00;101200.0;;;-8.0;83.7
78679;BME280;67994;59.334;13.528;2023-12-14T04:15:00;101200.0;;;-7.9;83.9
78679;BME280;67994;59.334;13.528;2023-12-14T04:16:00;101200.0;;;-8.0;84.0
78679;BME280;67994;59.334;13.528;2023-12-14T04:17:00;101200.0;;;-8.0;84.0
78679;BME280;67994;59.334;13.528;2023-12-14T04:18:00;101200.0;;;-7.9;84.2
78679;BME280;67994;59.334;13.528;2023-12-14T04:19:00;101200.0;;;-7.9;84.1
78679;BME280;67994;59.334;13.528;2023-12-14T04:20:01;101200.0;;;-8.0;84.0
78679;BME280;67994;59.334;13.528;2023-12-14T04:21:00;101200.0;;;-8.0;84.2
78679;BME280;67994;59.334;13.528;2023-12-14T04:22:00;101200.0;;;-8.0;84.4
78679;BME280;67994;59.334;13.528;2023-12-14T04:23:00;101200.0;;;-8.0;84.3
78679;BME280;67994;59.334;13.528;2023-12-14T04:24:00;101200.0;;;-8.0;84.3
78679;BME280;67994;59.334;13.528;2023-12-14T04:25:00;101200.0;;;-8.0;84.6
78679;BME280;67994;59.334;13.528;2023-12-14T04:26:00;101200.0;;;-8.1;84.9
78679;BME280;67994;59.334;13.528;2023-12-14T04:27:01;101200.0;;;-8.2;85.0
78679;BME280;67994;59.334;13.528;2023-12-14T04:28:00;101200.0;;;-8.2;84.9
78679;BME280;67994;59.334;13.528;2023-12-14T04:29:00;101200.0;;;-8.2;84.9
78679;BME280;67994;59.334;13.528;2023-12-14T04:30:00;101200.0;;;-8.1;85.0
78679;BME280;67994;59.334;13.528;2023-12-14T04:31:00;101200.0;;;-8.1;85.3
78679;BME280;67994;59.334;13.528;2023-12-14T04:32:00;101200.0;;;-8.2;85.3
78679;BME280;67994;59.334;13.528;2023-12-14T04:33:00;101200.0;;;-8.4;84.8
78679;BME280;67994;59.334;13.528;2023-12-14T04:34:00;101200.0;;;-8.5;84.0
78679;BME280;67994;59.334;13.528;2023-12-14T04:35:00;101200.0;;;-8.5;84.2
78679;BME280;67994;59.334;13.528;2023-12-14T04:36:00;101200.0;;;-8.6;84.5
78679;BME280;67994;59.334;13.528;2023-12-14T04:37:00;101200.0;;;-8.7;84.9
78679;BME280;67994;59.334;13.528;2023-12-14T04:38:00;101200.0;;;-8.7;85.2
78679;BME280;67994;59.334;13.528;2023-12-14T04:39:00;101200.0;;;-8.6;85.3
78679;BME280;67994;59.334;13.528;2023-12-14T04:40:00;101200.0;;;-8.6;85.0
78679;BME280;67994;59.334;13.528;2023-12-14T04:41:00;101200.0;;;-8.6;85.1
78679;BME280;67994;59.334;13.528;2023-12-14T04:42:00;101200.0;;;-8.6;85.1
78679;BME280;67994;59.334;13.528;2023-12-14T04:43:00;101200.0;;;-8.8;85.2
78679;BME280;67994;59.334;13.528;2023-12-14T04:44:00;101200.0;;;-8.8;84.8
78679;BME280;67994;59.334;13.528;2023-12-14T04:45:00;101200.0;;;-8.8;84.8
78679;BME280;67994;59.334;13.528;2023-12-14T04:46:00;101200.0;;;-8.8;85.1
78679;BME280;67994;59.334;13.528;2023-12-14T04:47:00;101200.0;;;-8.7;85.2
78679;BME280;67994;59.334;13.528;2023-12-14T04:48:00;101200.0;;;-8.7;85.5
78679;BME280;67994;59.334;13.528;2023-12-14T04:49:00;101200.0;;;-8.7;85.5
78679;BME280;67994;59.334;13.528;2023-12-14T04:50:00;101200.0;;;-8.8;85.7
78679;BME280;67994;59.334;13.528;2023-12-14T04:51:00;101200.0;;;-8.9;85.5
78679;BME280;67994;59.334;13.528;2023-12-14T04:52:00;101200.0;;;-8.8;85.4
78679;BME280;67994;59.334;13.528;2023-12-14T04:53:00;101200.0;;;-8.8;85.5
78679;BME280;67994;59.334;13.528;2023-12-14T04:54:00;101200.0;;;-8.7;85.8
78679;BME280;67994;59.334;13.528;2023-12-14T04:55:00;101200.0;;;-8.7;85.7
78679;BME280;67994;59.334;13.528;2023-12-14T04:56:00;101200.0;;;-8.7;85.6
78679;BME280;67994;59.334;13.528;2023-12-14T04:57:00;101200.0;;;-8.8;86.4
78679;BME280;67994;59.334;13.528;2023-12-14T04:58:00;101200.0;;;-8.8;86.7
78679;BME280;67994;59.334;13.528;2023-12-14T04:59:00;101200.0;;;-8.8;86.9
78679;BME280;67994;59.334;13.528;2023-12-14T05:00:00;101200.0;;;-8.8;86.9
78679;BME280;67994;59.334;13.528;2023-12-14T05:01:00;101200.0;;;-8.7;87.1
78679;BME280;67994;59.334;13.528;2023-12-14T05:02:00;101300.0;;;-8.8;87.0
78679;BME280;67994;59.334;13.528;2023-12-14T05:03:00;101300.0;;;-8.9;86.5
78679;BME280;67994;59.334;13.528;2023-12-14T05:04:00;101300.0;;;-8.9;86.2
78679;BME280;67994;59.334;13.528;2023-12-14T05:05:00;101300.0;;;-8.8;86.4
78679;BME280;67994;59.334;13.528;2023-12-14T05:06:00;101300.0;;;-8.9;87.0
78679;BME280;67994;59.334;13.528;2023-12-14T05:07:00;101300.0;;;-8.9;87.4
78679;BME280;67994;59.334;13.528;2023-12-14T05:08:00;101300.0;;;-8.9;87.4
78679;BME280;67994;59.334;13.528;2023-12-14T05:09:00;101300.0;;;-8.9;87.0
78679;BME280;67994;59.334;13.528;2023-12-14T05:10:00;101300.0;;;-8.9;86.7
78679;BME280;67994;59.334;13.528;2023-12-14T05:11:00;101300.0;;;-8.9;86.4
78679;BME280;67994;59.334;13.528;2023-12-14T05:12:00;101300.0;;;-8.9;86.0
78679;BME280;67994;59.334;13.528;2023-12-14T05:13:00;101300.0;;;-8.9;86.4
78679;BME280;67994;59.334;13.528;2023-12-14T05:14:00;101300.0;;;-9.0;86.7
78679;BME280;67994;59.334;13.528;2023-12-14T05:15:00;101300.0;;;-9.0;86.6
78679;BME280;67994;59.334;13.528;2023-12-14T05:16:00;101300.0;;;-9.0;85.8
78679;BME280;67994;59.334;13.528;2023-12-14T05:17:00;101300.0;;;-9.0;86.1
78679;BME280;67994;59.334;13.528;2023-12-14T05:18:00;101300.0;;;-9.1;86.0
78679;BME280;67994;59.334;13.528;2023-12-14T05:19:00;101300.0;;;-9.1;85.8
78679;BME280;67994;59.334;13.528;2023-12-14T05:20:00;101300.0;;;-9.1;85.6
78679;BME280;67994;59.334;13.528;2023-12-14T05:21:00;101300.0;;;-9.1;85.3